Time;durP1;ratioP1;P1;durP2;ratioP2;P2;SDS_P1;SDS_P2;PMS_P1;PMS_P2;Temp;Humidity;BMP_temperature;BMP_pressure;BME280_temperature;BME280_humidity;BME280_pressure;Samples;Min_cycle;Max_cycle;Signal;HPM_P1;HPM_P2
2022/12/29 00:01:44;;;;;;;1.30;1.15;;;;;;;;;;5015767;28;20661;-85
2022/12/29 00:04:15;;;;;;;2.92;1.40;;;;;;;;;;4998171;28;20306;-86
2022/12/29 00:06:44;;;;;;;1.50;1.40;;;;;;;;;;5015492;28;20190;-86
2022/12/29 00:09:13;;;;;;;1.50;1.40;;;;;;;;;;5018219;28;20310;-86
2022/12/29 00:11:41;;;;;;;1.40;1.30;;;;;;;;;;5023856;23;20238;-79
2022/12/29 00:16:56;;;;;;;1.98;1.65;;;;;;;;;;5015324;28;20230;-79
2022/12/29 00:36:02;;;;;;;1.40;1.30;;;;;;;;;;5017407;28;20358;-80
2022/12/29 00:44:09;;;;;;;1.67;1.58;;;;;;;;;;5014480;28;20210;-79
2022/12/29 00:46:38;;;;;;;1.92;1.77;;;;;;;;;;5015288;28;20227;-79
2022/12/29 00:51:53;;;;;;;1.33;1.23;;;;;;;;;;5011593;28;20253;-80
2022/12/29 00:54:20;;;;;;;1.88;1.77;;;;;;;;;;5010704;28;20209;-79
2022/12/29 00:56:49;;;;;;;1.65;1.55;;;;;;;;;;5014814;28;20297;-79
2022/12/29 00:59:16;;;;;;;1.50;1.38;;;;;;;;;;5015238;28;20202;-79
2022/12/29 01:01:44;;;;;;;1.65;1.55;;;;;;;;;;5016070;28;20214;-80
2022/12/29 01:04:11;;;;;;;2.17;1.73;;;;;;;;;;5012662;28;20203;-80
2022/12/29 01:06:41;;;;;;;3.50;1.90;;;;;;;;;;5016188;28;20326;-79
2022/12/29 01:11:56;;;;;;;1.42;1.33;;;;;;;;;;5018988;28;20217;-80
2022/12/29 01:14:24;;;;;;;2.35;1.63;;;;;;;;;;5018877;28;20233;-78
2022/12/29 01:16:51;;;;;;;1.90;1.77;;;;;;;;;;5016182;28;20219;-79
2022/12/29 01:19:20;;;;;;;1.40;1.30;;;;;;;;;;5014761;28;20581;-79
2022/12/29 01:21:48;;;;;;;2.28;1.80;;;;;;;;;;5023834;28;20290;-79
2022/12/29 01:24:18;;;;;;;2.25;1.98;;;;;;;;;;5018483;28;20927;-80
2022/12/29 01:26:46;;;;;;;1.92;1.83;;;;;;;;;;5019623;28;20215;-79
2022/12/29 01:29:14;;;;;;;2.78;2.05;;;;;;;;;;5027699;28;20294;-80
2022/12/29 01:31:41;;;;;;;2.10;1.75;;;;;;;;;;5036335;28;20692;-80
2022/12/29 01:34:09;;;;;;;2.10;1.90;;;;;;;;;;5026005;28;20689;-80
2022/12/29 01:36:36;;;;;;;2.25;1.85;;;;;;;;;;5028242;28;20301;-81
2022/12/29 01:39:04;;;;;;;2.20;2.00;;;;;;;;;;5014682;28;20852;-80
2022/12/29 01:41:32;;;;;;;3.97;2.05;;;;;;;;;;5013891;28;20190;-80
2022/12/29 01:44:01;;;;;;;1.73;1.63;;;;;;;;;;5016910;28;20227;-80
2022/12/29 01:46:32;;;;;;;1.77;1.55;;;;;;;;;;5017740;28;20695;-78
2022/12/29 01:49:13;;;;;;;2.33;1.42;;;;;;;;;;5014633;28;20203;-81
2022/12/29 01:51:44;;;;;;;1.58;1.48;;;;;;;;;;5016079;28;20221;-78
2022/12/29 01:54:14;;;;;;;1.40;1.30;;;;;;;;;;5014998;28;20219;-80
2022/12/29 01:56:43;;;;;;;1.65;1.55;;;;;;;;;;5014112;28;20226;-82
2022/12/29 01:59:16;;;;;;;1.67;1.20;;;;;;;;;;5008545;28;20225;-80
2022/12/29 02:01:43;;;;;;;1.60;1.50;;;;;;;;;;5013860;28;20217;-83
2022/12/29 02:04:12;;;;;;;3.47;1.67;;;;;;;;;;5014384;28;20640;-78
2022/12/29 02:06:44;;;;;;;1.70;1.60;;;;;;;;;;5013763;28;20229;-82
2022/12/29 02:09:12;;;;;;;1.67;1.58;;;;;;;;;;5013303;28;20578;-80
2022/12/29 02:11:41;;;;;;;1.38;1.27;;;;;;;;;;5021140;28;20210;-81
2022/12/29 02:14:11;;;;;;;3.22;1.67;;;;;;;;;;5018282;28;20234;-81
2022/12/29 02:19:42;;;;;;;1.60;1.38;;;;;;;;;;4992548;28;20231;-90
2022/12/29 02:22:20;;;;;;;1.48;1.38;;;;;;;;;;4994499;28;20215;-90
2022/12/29 02:25:39;;;;;;;1.40;1.30;;;;;;;;;;4995057;28;20238;-89
2022/12/29 02:28:53;;;;;;;1.20;1.10;;;;;;;;;;4995216;28;20194;-90
2022/12/29 02:31:25;;;;;;;1.77;1.45;;;;;;;;;;4994413;28;20234;-89
2022/12/29 02:34:05;;;;;;;1.60;1.40;;;;;;;;;;4994836;28;20318;-90
2022/12/29 02:36:41;;;;;;;1.80;1.70;;;;;;;;;;4994083;28;20266;-91
2022/12/29 02:39:17;;;;;;;1.58;1.48;;;;;;;;;;4984845;28;20219;-91
2022/12/29 02:41:54;;;;;;;1.17;1.17;;;;;;;;;;5003528;28;20246;-90
2022/12/29 02:44:28;;;;;;;2.10;1.90;;;;;;;;;;5002155;28;20286;-90
2022/12/29 02:47:03;;;;;;;1.70;1.60;;;;;;;;;;4994405;28;20687;-90
2022/12/29 02:49:37;;;;;;;1.60;1.50;;;;;;;;;;4997215;28;20242;-91
2022/12/29 02:52:09;;;;;;;1.23;1.13;;;;;;;;;;4993789;28;20247;-89
2022/12/29 02:54:42;;;;;;;1.20;1.20;;;;;;;;;;4994300;28;20315;-90
2022/12/29 02:57:14;;;;;;;1.10;1.08;;;;;;;;;;4994394;28;20195;-90
2022/12/29 02:59:42;;;;;;;1.50;1.40;;;;;;;;;;4993771;28;20208;-91
2022/12/29 03:02:29;;;;;;;1.77;1.52;;;;;;;;;;4993977;28;20590;-91
2022/12/29 03:05:24;;;;;;;1.52;1.40;;;;;;;;;;4993210;28;20318;-90
2022/12/29 03:07:59;;;;;;;1.27;1.20;;;;;;;;;;5010171;28;20199;-90
2022/12/29 03:10:38;;;;;;;1.48;1.38;;;;;;;;;;5009084;28;20281;-91
2022/12/29 03:16:08;;;;;;;1.15;1.05;;;;;;;;;;4981223;28;20189;-91
2022/12/29 03:18:46;;;;;;;1.00;1.00;;;;;;;;;;4997753;28;20209;-90
2022/12/29 03:21:18;;;;;;;1.15;1.05;;;;;;;;;;4993560;28;20219;-90
2022/12/29 03:23:49;;;;;;;0.82;0.82;;;;;;;;;;4993617;28;20275;-90
2022/12/29 03:26:18;;;;;;;1.00;0.95;;;;;;;;;;4994019;28;20188;-91
2022/12/29 03:28:49;;;;;;;0.60;0.60;;;;;;;;;;4974461;28;20200;-90
2022/12/29 03:31:18;;;;;;;1.00;1.00;;;;;;;;;;4997402;28;20249;-91
2022/12/29 03:33:48;;;;;;;1.15;1.08;;;;;;;;;;4995361;28;20255;-91
2022/12/29 03:36:22;;;;;;;0.70;0.70;;;;;;;;;;4993658;28;20288;-90
2022/12/29 03:38:54;;;;;;;0.80;0.80;;;;;;;;;;4993659;28;20283;-90
2022/12/29 03:41:27;;;;;;;1.23;0.93;;;;;;;;;;4993268;28;20246;-91
2022/12/29 03:43:54;;;;;;;0.95;0.95;;;;;;;;;;5002571;28;20210;-91
2022/12/29 03:46:22;;;;;;;0.75;0.75;;;;;;;;;;4993467;28;20227;-91
2022/12/29 03:48:51;;;;;;;0.88;0.88;;;;;;;;;;4993131;28;20239;-91
2022/12/29 03:51:18;;;;;;;0.70;0.70;;;;;;;;;;4999035;28;20255;-91
2022/12/29 03:53:45;;;;;;;0.52;0.52;;;;;;;;;;5013162;28;20314;-90
2022/12/29 03:56:13;;;;;;;1.98;0.90;;;;;;;;;;4995931;28;20203;-91
2022/12/29 03:58:41;;;;;;;0.70;0.70;;;;;;;;;;4993692;28;20306;-91
2022/12/29 04:01:08;;;;;;;0.75;0.75;;;;;;;;;;4993307;28;20306;-90
2022/12/29 04:03:36;;;;;;;0.75;0.75;;;;;;;;;;4993438;28;20278;-91
2022/12/29 04:06:05;;;;;;;0.88;0.88;;;;;;;;;;4996638;28;20191;-92
2022/12/29 04:08:32;;;;;;;1.63;0.55;;;;;;;;;;5005189;28;20679;-91
2022/12/29 04:11:00;;;;;;;0.80;0.80;;;;;;;;;;5003019;28;20294;-91
2022/12/29 04:13:27;;;;;;;0.70;0.70;;;;;;;;;;4993454;28;20208;-91
2022/12/29 04:15:55;;;;;;;0.90;0.90;;;;;;;;;;4993393;28;20294;-91
2022/12/29 04:18:22;;;;;;;0.50;0.50;;;;;;;;;;4993118;28;20306;-91
2022/12/29 04:21:02;;;;;;;1.20;1.10;;;;;;;;;;4993101;28;20230;-91
2022/12/29 04:23:33;;;;;;;0.70;0.70;;;;;;;;;;4993692;28;20549;-90
2022/12/29 04:26:01;;;;;;;0.70;0.70;;;;;;;;;;4993277;28;20214;-90
2022/12/29 04:28:30;;;;;;;0.60;0.60;;;;;;;;;;4993410;28;20207;-91
2022/12/29 04:30:57;;;;;;;0.60;0.60;;;;;;;;;;4992998;28;20222;-90
2022/12/29 04:33:25;;;;;;;0.65;0.57;;;;;;;;;;4994591;28;20203;-90
2022/12/29 04:35:53;;;;;;;0.60;0.60;;;;;;;;;;4996354;28;20290;-90
2022/12/29 04:38:22;;;;;;;0.70;0.70;;;;;;;;;;4996938;28;20210;-90
2022/12/29 04:40:51;;;;;;;0.65;0.65;;;;;;;;;;4996495;28;20227;-90
2022/12/29 04:43:21;;;;;;;0.60;0.60;;;;;;;;;;4996540;28;20290;-89
2022/12/29 04:45:48;;;;;;;0.52;0.52;;;;;;;;;;4997955;28;20204;-90
2022/12/29 04:48:16;;;;;;;0.50;0.50;;;;;;;;;;5000521;28;20210;-90
2022/12/29 04:50:45;;;;;;;0.43;0.43;;;;;;;;;;4996274;28;20299;-90
2022/12/29 04:53:12;;;;;;;0.70;0.70;;;;;;;;;;4996676;28;20231;-92
2022/12/29 04:55:40;;;;;;;0.80;0.80;;;;;;;;;;5003738;28;20223;-90
2022/12/29 04:58:09;;;;;;;0.73;0.73;;;;;;;;;;5001293;28;20238;-91
2022/12/29 05:00:36;;;;;;;0.50;0.50;;;;;;;;;;4996344;28;20727;-91
2022/12/29 05:03:04;;;;;;;0.60;0.60;;;;;;;;;;4995973;28;20647;-91
2022/12/29 05:05:31;;;;;;;0.73;0.73;;;;;;;;;;4995873;28;20700;-91
2022/12/29 05:07:59;;;;;;;0.70;0.70;;;;;;;;;;4995906;28;20288;-91
2022/12/29 05:10:26;;;;;;;0.95;0.80;;;;;;;;;;4996167;28;20203;-91
2022/12/29 05:12:54;;;;;;;0.63;0.63;;;;;;;;;;4997099;28;20254;-90
2022/12/29 05:15:27;;;;;;;0.60;0.60;;;;;;;;;;4995736;28;20252;-91
2022/12/29 05:17:55;;;;;;;1.40;0.80;;;;;;;;;;4996388;28;20266;-90
2022/12/29 05:20:22;;;;;;;0.70;0.70;;;;;;;;;;4995896;28;20207;-90
2022/12/29 05:22:50;;;;;;;0.77;0.77;;;;;;;;;;4995911;28;20633;-92
2022/12/29 05:25:17;;;;;;;1.17;0.90;;;;;;;;;;5001523;28;20628;-90
2022/12/29 05:27:45;;;;;;;0.68;0.68;;;;;;;;;;4998266;28;20279;-90
2022/12/29 05:30:13;;;;;;;0.60;0.60;;;;;;;;;;4995526;28;20282;-89
2022/12/29 05:32:42;;;;;;;0.57;0.57;;;;;;;;;;4976550;28;20651;-90
2022/12/29 05:35:10;;;;;;;0.43;0.43;;;;;;;;;;4983239;28;20229;-90
2022/12/29 05:37:38;;;;;;;0.60;0.60;;;;;;;;;;5002774;28;20797;-90
2022/12/29 05:40:07;;;;;;;0.70;0.70;;;;;;;;;;4996385;28;20199;-91
2022/12/29 05:42:35;;;;;;;0.47;0.47;;;;;;;;;;4996168;28;20224;-90
2022/12/29 05:45:02;;;;;;;0.65;0.65;;;;;;;;;;4998272;28;20286;-90
2022/12/29 05:47:30;;;;;;;0.70;0.70;;;;;;;;;;5004351;28;20646;-91
2022/12/29 05:49:58;;;;;;;0.60;0.60;;;;;;;;;;4998742;28;20291;-90
2022/12/29 05:52:26;;;;;;;0.60;0.60;;;;;;;;;;5001686;28;20219;-90
2022/12/29 05:54:53;;;;;;;0.50;0.50;;;;;;;;;;4998564;28;20318;-89
2022/12/29 05:57:21;;;;;;;1.27;1.00;;;;;;;;;;4996009;28;20199;-91
2022/12/29 05:59:48;;;;;;;1.08;0.55;;;;;;;;;;4994814;28;20303;-89
2022/12/29 06:02:16;;;;;;;0.50;0.50;;;;;;;;;;4994952;28;20266;-89
2022/12/29 06:04:43;;;;;;;0.52;0.50;;;;;;;;;;4995910;28;20283;-88
2022/12/29 06:07:12;;;;;;;0.45;0.45;;;;;;;;;;5001650;28;20728;-91
2022/12/29 06:09:40;;;;;;;0.50;0.50;;;;;;;;;;4995018;28;20679;-89
2022/12/29 06:12:08;;;;;;;0.40;0.40;;;;;;;;;;5024052;23;20238;-84
2022/12/29 06:14:35;;;;;;;0.68;0.68;;;;;;;;;;5036862;28;20259;-84
2022/12/29 06:17:02;;;;;;;0.50;0.50;;;;;;;;;;5037123;28;20698;-85
2022/12/29 06:19:30;;;;;;;0.40;0.40;;;;;;;;;;5036445;28;20657;-84
2022/12/29 06:21:57;;;;;;;1.35;0.50;;;;;;;;;;5036458;28;20225;-86
2022/12/29 06:24:26;;;;;;;2.70;0.90;;;;;;;;;;5037448;28;20664;-85
2022/12/29 06:26:54;;;;;;;0.60;0.60;;;;;;;;;;5035732;28;20289;-86
2022/12/29 06:29:21;;;;;;;0.65;0.65;;;;;;;;;;5035804;28;20794;-86
2022/12/29 06:31:50;;;;;;;0.50;0.50;;;;;;;;;;5026689;28;20692;-86
2022/12/29 06:34:18;;;;;;;0.65;0.65;;;;;;;;;;5032038;28;20202;-86
2022/12/29 06:36:45;;;;;;;0.50;0.50;;;;;;;;;;5034846;28;20309;-84
2022/12/29 06:39:13;;;;;;;0.55;0.55;;;;;;;;;;5042385;28;20208;-85
2022/12/29 06:41:42;;;;;;;0.65;0.43;;;;;;;;;;5035200;28;20297;-86
2022/12/29 06:44:10;;;;;;;0.60;0.60;;;;;;;;;;5035205;28;20589;-85
2022/12/29 06:46:39;;;;;;;0.70;0.70;;;;;;;;;;5036507;28;20194;-86
2022/12/29 06:49:06;;;;;;;0.52;0.52;;;;;;;;;;5034817;28;20225;-86
2022/12/29 06:51:33;;;;;;;0.65;0.60;;;;;;;;;;5036591;28;20767;-85
2022/12/29 06:54:01;;;;;;;0.40;0.40;;;;;;;;;;5026570;28;20636;-85
2022/12/29 06:56:28;;;;;;;0.60;0.60;;;;;;;;;;5030643;28;20301;-84
2022/12/29 06:58:59;;;;;;;1.05;0.90;;;;;;;;;;5036870;28;20289;-85
2022/12/29 07:01:27;;;;;;;0.70;0.70;;;;;;;;;;5036541;28;20736;-87
2022/12/29 07:03:54;;;;;;;0.60;0.60;;;;;;;;;;5035352;28;20225;-85
2022/12/29 07:06:22;;;;;;;0.70;0.70;;;;;;;;;;5035893;28;20616;-84
2022/12/29 07:08:50;;;;;;;0.70;0.65;;;;;;;;;;5032347;28;20205;-86
2022/12/29 07:11:17;;;;;;;0.70;0.57;;;;;;;;;;5034086;28;20280;-85
2022/12/29 07:13:45;;;;;;;0.60;0.60;;;;;;;;;;5030888;28;20230;-84
2022/12/29 07:16:14;;;;;;;1.10;1.00;;;;;;;;;;5034168;28;20238;-85
2022/12/29 07:18:45;;;;;;;0.55;0.55;;;;;;;;;;5033571;28;20241;-86
2022/12/29 07:21:13;;;;;;;0.68;0.68;;;;;;;;;;5035081;28;20277;-85
2022/12/29 07:23:40;;;;;;;1.10;1.00;;;;;;;;;;5042791;28;20194;-85
2022/12/29 07:26:10;;;;;;;0.60;0.60;;;;;;;;;;5033248;28;20571;-86
2022/12/29 07:28:38;;;;;;;0.70;0.70;;;;;;;;;;5033439;28;20290;-86
2022/12/29 07:31:06;;;;;;;0.90;0.90;;;;;;;;;;5031943;28;20199;-84
2022/12/29 07:33:35;;;;;;;0.77;0.70;;;;;;;;;;5029837;28;20237;-86
2022/12/29 07:36:03;;;;;;;0.90;0.70;;;;;;;;;;5029455;28;20217;-86
2022/12/29 07:38:30;;;;;;;0.60;0.60;;;;;;;;;;5026283;28;20624;-87
2022/12/29 07:41:00;;;;;;;1.02;1.02;;;;;;;;;;5028147;28;20649;-85
2022/12/29 07:43:28;;;;;;;0.70;0.70;;;;;;;;;;5032255;28;20200;-86
2022/12/29 07:45:56;;;;;;;0.50;0.50;;;;;;;;;;5025605;28;20290;-86
2022/12/29 07:48:24;;;;;;;0.95;0.93;;;;;;;;;;5033291;28;20278;-86
2022/12/29 07:50:54;;;;;;;0.77;0.77;;;;;;;;;;5033735;28;20191;-86
2022/12/29 07:53:21;;;;;;;0.80;0.80;;;;;;;;;;5035593;28;20273;-86
2022/12/29 07:55:49;;;;;;;1.02;0.98;;;;;;;;;;5034201;28;20195;-88
2022/12/29 07:58:17;;;;;;;0.70;0.70;;;;;;;;;;5030137;28;20612;-85
2022/12/29 08:00:44;;;;;;;0.80;0.80;;;;;;;;;;5035074;28;20314;-84
2022/12/29 08:03:12;;;;;;;1.00;0.80;;;;;;;;;;5034122;28;20257;-84
2022/12/29 08:05:39;;;;;;;0.80;0.80;;;;;;;;;;5030388;28;20277;-86
2022/12/29 08:08:08;;;;;;;1.40;0.98;;;;;;;;;;5035006;28;20277;-86
2022/12/29 08:10:36;;;;;;;1.15;1.00;;;;;;;;;;5033503;28;20293;-85
2022/12/29 08:13:03;;;;;;;0.80;0.80;;;;;;;;;;5033387;28;20253;-85
2022/12/29 08:15:31;;;;;;;1.58;0.80;;;;;;;;;;5048803;28;20203;-84
2022/12/29 08:17:58;;;;;;;1.20;0.80;;;;;;;;;;5046370;28;20317;-86
2022/12/29 08:20:27;;;;;;;1.15;1.05;;;;;;;;;;5035112;28;20537;-85
2022/12/29 08:22:54;;;;;;;1.52;1.10;;;;;;;;;;5039156;28;20257;-86
2022/12/29 08:25:24;;;;;;;0.98;0.98;;;;;;;;;;5050417;28;20205;-86
2022/12/29 08:27:52;;;;;;;0.93;0.93;;;;;;;;;;5048411;28;20276;-86
2022/12/29 08:30:19;;;;;;;1.00;1.00;;;;;;;;;;5037123;28;20228;-85
2022/12/29 08:32:47;;;;;;;1.60;0.95;;;;;;;;;;5038482;28;20249;-87
2022/12/29 08:35:15;;;;;;;0.93;0.93;;;;;;;;;;5037774;28;20202;-85
2022/12/29 08:37:42;;;;;;;1.38;0.90;;;;;;;;;;5029432;28;20225;-87
2022/12/29 08:40:11;;;;;;;1.50;0.88;;;;;;;;;;5037414;28;20233;-87
2022/12/29 08:42:40;;;;;;;0.90;0.90;;;;;;;;;;5035189;28;20229;-87
2022/12/29 08:45:09;;;;;;;1.02;1.02;;;;;;;;;;5040807;28;20574;-85
2022/12/29 08:47:37;;;;;;;1.65;1.10;;;;;;;;;;5039881;28;20202;-87
2022/12/29 08:50:10;;;;;;;3.83;2.63;;;;;;;;;;5038154;28;20325;-87
2022/12/29 08:52:40;;;;;;;2.10;1.80;;;;;;;;;;5034541;28;20309;-87
2022/12/29 08:55:09;;;;;;;1.42;1.15;;;;;;;;;;5036319;28;20244;-87
2022/12/29 08:57:37;;;;;;;1.30;1.20;;;;;;;;;;5044485;28;20660;-86
2022/12/29 09:00:11;;;;;;;0.93;0.90;;;;;;;;;;5033447;28;20209;-87
2022/12/29 09:02:38;;;;;;;1.05;1.00;;;;;;;;;;5039971;28;20213;-86
2022/12/29 09:05:07;;;;;;;1.00;0.90;;;;;;;;;;5037961;28;20258;-87
2022/12/29 09:07:38;;;;;;;0.85;0.85;;;;;;;;;;5029956;28;20309;-87
2022/12/29 09:10:07;;;;;;;0.50;0.50;;;;;;;;;;5041340;28;20213;-87
2022/12/29 09:12:34;;;;;;;0.50;0.50;;;;;;;;;;5042274;28;20226;-88
2022/12/29 09:15:02;;;;;;;0.80;0.80;;;;;;;;;;5032255;28;20671;-86
2022/12/29 09:17:44;;;;;;;0.30;0.30;;;;;;;;;;5040217;28;20237;-85
2022/12/29 09:20:12;;;;;;;0.30;0.30;;;;;;;;;;5037311;28;20275;-87
2022/12/29 09:22:39;;;;;;;0.30;0.30;;;;;;;;;;5043757;28;20218;-87
2022/12/29 09:25:08;;;;;;;0.63;0.50;;;;;;;;;;5034951;28;20226;-86
2022/12/29 09:27:36;;;;;;;0.20;0.20;;;;;;;;;;5045020;28;20198;-86
2022/12/29 09:30:05;;;;;;;0.30;0.30;;;;;;;;;;5045272;28;20721;-85
2022/12/29 09:32:34;;;;;;;0.20;0.20;;;;;;;;;;5053504;28;20224;-87
2022/12/29 09:35:02;;;;;;;0.30;0.30;;;;;;;;;;5060758;28;20734;-85
2022/12/29 09:37:30;;;;;;;0.30;0.30;;;;;;;;;;5048847;28;20308;-85
2022/12/29 09:39:57;;;;;;;0.50;0.50;;;;;;;;;;5041168;28;20207;-87
2022/12/29 09:42:29;;;;;;;1.00;0.50;;;;;;;;;;5049850;28;20253;-88
2022/12/29 09:45:11;;;;;;;0.50;0.50;;;;;;;;;;5041193;28;20658;-86
2022/12/29 09:47:41;;;;;;;0.70;0.50;;;;;;;;;;5047414;28;20281;-86
2022/12/29 09:50:18;;;;;;;0.50;0.50;;;;;;;;;;5049359;28;20194;-86
2022/12/29 09:52:50;;;;;;;0.50;0.50;;;;;;;;;;5055112;28;20995;-87
2022/12/29 09:55:20;;;;;;;0.50;0.50;;;;;;;;;;5031596;28;20241;-87
2022/12/29 09:57:50;;;;;;;0.40;0.40;;;;;;;;;;5037541;28;20666;-86
2022/12/29 10:00:21;;;;;;;0.60;0.50;;;;;;;;;;5036470;28;20688;-86
2022/12/29 10:02:55;;;;;;;0.50;0.50;;;;;;;;;;5035658;28;20210;-85
2022/12/29 10:05:32;;;;;;;1.45;0.40;;;;;;;;;;5031940;28;20200;-85
2022/12/29 10:08:17;;;;;;;0.40;0.40;;;;;;;;;;5034050;28;20273;-85
2022/12/29 10:10:53;;;;;;;0.30;0.30;;;;;;;;;;5050156;28;20198;-86
2022/12/29 10:13:34;;;;;;;0.60;0.60;;;;;;;;;;5038149;28;20269;-86
2022/12/29 10:16:06;;;;;;;1.08;0.60;;;;;;;;;;5036068;28;20273;-86
2022/12/29 10:18:59;;;;;;;0.50;0.50;;;;;;;;;;5031891;28;20292;-85
2022/12/29 10:21:40;;;;;;;0.43;0.43;;;;;;;;;;5030592;28;20704;-87
2022/12/29 10:24:11;;;;;;;0.40;0.40;;;;;;;;;;5027533;28;20234;-86
2022/12/29 10:26:42;;;;;;;1.08;0.98;;;;;;;;;;5030958;28;20241;-86
2022/12/29 10:29:17;;;;;;;0.70;0.70;;;;;;;;;;5034225;28;20286;-85
2022/12/29 10:31:47;;;;;;;0.47;0.47;;;;;;;;;;5023114;28;20229;-86
2022/12/29 10:34:22;;;;;;;0.43;0.43;;;;;;;;;;5032925;28;20281;-86
2022/12/29 10:36:52;;;;;;;0.40;0.40;;;;;;;;;;5033380;28;20198;-85
2022/12/29 10:39:26;;;;;;;0.90;0.80;;;;;;;;;;5033675;28;20219;-86
2022/12/29 10:42:00;;;;;;;0.32;0.32;;;;;;;;;;5034488;28;20228;-85
2022/12/29 10:44:31;;;;;;;0.43;0.43;;;;;;;;;;5038586;28;20205;-86
2022/12/29 10:47:04;;;;;;;0.52;0.52;;;;;;;;;;5042009;28;20229;-85
2022/12/29 10:49:40;;;;;;;0.40;0.40;;;;;;;;;;5036482;28;20195;-85
2022/12/29 10:52:08;;;;;;;1.02;0.93;;;;;;;;;;5032626;28;20304;-86
2022/12/29 10:54:43;;;;;;;1.23;0.82;;;;;;;;;;5028716;28;20293;-85
2022/12/29 10:57:14;;;;;;;0.57;0.52;;;;;;;;;;5035857;28;20195;-86
2022/12/29 10:59:43;;;;;;;0.90;0.80;;;;;;;;;;5033235;28;20294;-85
2022/12/29 11:02:44;;;;;;;0.50;0.50;;;;;;;;;;5032771;28;20228;-85
2022/12/29 11:05:24;;;;;;;0.35;0.35;;;;;;;;;;5027671;28;20209;-86
2022/12/29 11:07:57;;;;;;;0.60;0.60;;;;;;;;;;5042917;28;20658;-86
2022/12/29 11:10:36;;;;;;;0.40;0.40;;;;;;;;;;5031458;28;20202;-85
2022/12/29 11:13:11;;;;;;;0.50;0.50;;;;;;;;;;5025698;28;20222;-84
2022/12/29 11:15:43;;;;;;;0.35;0.35;;;;;;;;;;5032633;28;20274;-83
2022/12/29 11:18:23;;;;;;;1.50;0.75;;;;;;;;;;5032331;28;20214;-85
2022/12/29 11:20:55;;;;;;;1.63;0.68;;;;;;;;;;5029779;28;20273;-83
2022/12/29 11:23:32;;;;;;;0.70;0.70;;;;;;;;;;5032819;28;20198;-86
2022/12/29 11:26:17;;;;;;;0.50;0.50;;;;;;;;;;5032228;28;20227;-85
2022/12/29 11:28:47;;;;;;;2.13;0.70;;;;;;;;;;5046075;28;20545;-85
2022/12/29 11:31:20;;;;;;;0.40;0.40;;;;;;;;;;5029713;28;20888;-85
2022/12/29 11:33:47;;;;;;;1.92;0.52;;;;;;;;;;5031234;28;20286;-86
2022/12/29 11:36:20;;;;;;;1.10;0.75;;;;;;;;;;5030492;28;20202;-87
2022/12/29 11:38:51;;;;;;;0.45;0.45;;;;;;;;;;5032336;28;20210;-85
2022/12/29 11:41:23;;;;;;;1.48;0.60;;;;;;;;;;5030195;28;20222;-86
2022/12/29 11:43:51;;;;;;;0.50;0.50;;;;;;;;;;5037676;28;20218;-86
2022/12/29 11:46:22;;;;;;;1.17;0.50;;;;;;;;;;5037617;28;20220;-86
2022/12/29 11:48:50;;;;;;;1.58;0.73;;;;;;;;;;5035342;28;20213;-86
2022/12/29 11:51:26;;;;;;;0.70;0.60;;;;;;;;;;5038737;28;20313;-85
2022/12/29 11:53:57;;;;;;;1.30;1.20;;;;;;;;;;5032447;28;20197;-85
2022/12/29 11:56:37;;;;;;;1.23;0.70;;;;;;;;;;5033396;28;20191;-86
2022/12/29 11:59:37;;;;;;;0.90;0.60;;;;;;;;;;5031605;28;20297;-86
2022/12/29 12:02:29;;;;;;;0.70;0.70;;;;;;;;;;5021119;28;20667;-87
2022/12/29 12:05:05;;;;;;;2.40;0.88;;;;;;;;;;5049645;28;20201;-85
2022/12/29 12:07:42;;;;;;;1.55;0.63;;;;;;;;;;5030443;28;20234;-86
2022/12/29 12:10:20;;;;;;;1.02;0.55;;;;;;;;;;5040176;28;20244;-86
2022/12/29 12:12:53;;;;;;;0.70;0.70;;;;;;;;;;5041768;28;20273;-85
2022/12/29 12:15:26;;;;;;;0.82;0.82;;;;;;;;;;5040018;28;20207;-85
2022/12/29 12:17:56;;;;;;;2.55;1.10;;;;;;;;;;5039786;28;20225;-86
2022/12/29 12:20:29;;;;;;;1.67;0.73;;;;;;;;;;5033747;28;20210;-85
2022/12/29 12:23:08;;;;;;;2.10;1.00;;;;;;;;;;5036059;28;20711;-85
2022/12/29 12:25:40;;;;;;;0.88;0.80;;;;;;;;;;5043866;28;20225;-85
2022/12/29 12:28:14;;;;;;;0.65;0.65;;;;;;;;;;5023155;28;20222;-85
2022/12/29 12:30:47;;;;;;;3.33;1.00;;;;;;;;;;5035529;28;20545;-85
2022/12/29 12:33:23;;;;;;;1.38;0.90;;;;;;;;;;5021008;28;20715;-85
2022/12/29 12:36:05;;;;;;;1.40;0.70;;;;;;;;;;5019559;28;20190;-86
2022/12/29 12:38:41;;;;;;;2.17;0.80;;;;;;;;;;5034599;28;20321;-85
2022/12/29 12:41:11;;;;;;;0.85;0.57;;;;;;;;;;5035928;28;20718;-87
2022/12/29 12:43:44;;;;;;;1.65;1.15;;;;;;;;;;5034951;28;20183;-85
2022/12/29 12:46:31;;;;;;;1.73;0.73;;;;;;;;;;5035212;28;20300;-85
2022/12/29 12:49:18;;;;;;;1.30;1.20;;;;;;;;;;5033686;28;20199;-86
2022/12/29 12:51:52;;;;;;;1.30;0.90;;;;;;;;;;5032235;28;20256;-86
2022/12/29 12:54:35;;;;;;;0.90;0.90;;;;;;;;;;5033012;28;20212;-85
2022/12/29 12:57:14;;;;;;;0.82;0.63;;;;;;;;;;5035634;28;20285;-87
2022/12/29 12:59:53;;;;;;;1.88;0.52;;;;;;;;;;5029919;28;20297;-85
2022/12/29 13:02:44;;;;;;;1.83;0.70;;;;;;;;;;5038051;28;20217;-87
2022/12/29 13:05:27;;;;;;;1.98;0.80;;;;;;;;;;5025794;28;20242;-86
2022/12/29 13:08:11;;;;;;;0.60;0.60;;;;;;;;;;5034116;28;20204;-86
2022/12/29 13:10:46;;;;;;;0.50;0.50;;;;;;;;;;5036914;28;20533;-86
2022/12/29 13:14:04;;;;;;;0.55;0.50;;;;;;;;;;5016069;28;20234;-86
2022/12/29 13:16:39;;;;;;;0.50;0.50;;;;;;;;;;5023348;28;20238;-87
2022/12/29 13:19:13;;;;;;;0.60;0.60;;;;;;;;;;5034990;28;20296;-86
2022/12/29 13:22:02;;;;;;;1.40;0.52;;;;;;;;;;5050107;28;20248;-86
2022/12/29 13:24:37;;;;;;;2.95;0.98;;;;;;;;;;5055669;28;20264;-87
2022/12/29 13:27:17;;;;;;;0.88;0.60;;;;;;;;;;5041936;28;20595;-86
2022/12/29 13:29:52;;;;;;;0.77;0.77;;;;;;;;;;5037276;28;20618;-87
2022/12/29 13:32:33;;;;;;;0.98;0.82;;;;;;;;;;5036067;28;21148;-88
2022/12/29 13:35:16;;;;;;;0.88;0.70;;;;;;;;;;5036675;28;20202;-87
2022/12/29 13:37:51;;;;;;;0.85;0.70;;;;;;;;;;5052979;28;20202;-87
2022/12/29 13:40:22;;;;;;;1.90;0.63;;;;;;;;;;5056159;28;20213;-87
2022/12/29 13:42:52;;;;;;;0.52;0.50;;;;;;;;;;5041759;28;20233;-87
2022/12/29 13:45:23;;;;;;;0.60;0.60;;;;;;;;;;5041933;28;20738;-87
2022/12/29 13:47:56;;;;;;;4.10;1.80;;;;;;;;;;5053858;28;20200;-87
2022/12/29 13:50:27;;;;;;;0.70;0.70;;;;;;;;;;5037982;28;20264;-87
2022/12/29 13:53:05;;;;;;;1.27;0.60;;;;;;;;;;5037232;28;20596;-86
2022/12/29 13:55:38;;;;;;;0.90;0.90;;;;;;;;;;5035212;28;20742;-86
2022/12/29 13:58:14;;;;;;;0.88;0.65;;;;;;;;;;5020523;28;20277;-86
2022/12/29 14:00:50;;;;;;;0.40;0.40;;;;;;;;;;5044231;28;20292;-87
2022/12/29 14:03:38;;;;;;;1.00;0.73;;;;;;;;;;5054468;28;20579;-87
2022/12/29 14:06:22;;;;;;;1.58;0.90;;;;;;;;;;5049256;28;20397;-87
2022/12/29 14:08:50;;;;;;;1.48;0.82;;;;;;;;;;5034276;28;20628;-87
2022/12/29 14:11:21;;;;;;;0.75;0.75;;;;;;;;;;5034481;28;20225;-88
2022/12/29 14:13:50;;;;;;;0.65;0.55;;;;;;;;;;5034155;28;20201;-87
2022/12/29 14:16:33;;;;;;;0.80;0.80;;;;;;;;;;5034194;28;20197;-87
2022/12/29 14:19:14;;;;;;;0.57;0.57;;;;;;;;;;5032829;28;20210;-89
2022/12/29 14:21:42;;;;;;;1.33;0.50;;;;;;;;;;5033699;28;20222;-86
2022/12/29 14:24:45;;;;;;;0.75;0.75;;;;;;;;;;5034386;28;20234;-88
2022/12/29 14:27:54;;;;;;;0.55;0.50;;;;;;;;;;5024525;28;20674;-87
2022/12/29 14:30:52;;;;;;;1.00;0.50;;;;;;;;;;5017603;28;20222;-87
2022/12/29 14:33:21;;;;;;;3.92;0.80;;;;;;;;;;5018659;28;20200;-87
2022/12/29 14:35:52;;;;;;;2.75;1.80;;;;;;;;;;5017883;28;20206;-87
2022/12/29 14:38:30;;;;;;;0.80;0.80;;;;;;;;;;5017662;28;20254;-87
2022/12/29 14:41:28;;;;;;;0.95;0.85;;;;;;;;;;5018346;28;20211;-87
2022/12/29 14:44:02;;;;;;;2.00;0.68;;;;;;;;;;5050249;28;20587;-88
2022/12/29 14:46:56;;;;;;;2.45;1.25;;;;;;;;;;5051334;28;20201;-85
2022/12/29 14:49:28;;;;;;;1.15;0.50;;;;;;;;;;5031123;28;20415;-86
2022/12/29 14:52:06;;;;;;;1.55;0.73;;;;;;;;;;5039280;28;20218;-87
2022/12/29 14:54:50;;;;;;;1.05;0.90;;;;;;;;;;5039393;28;20205;-85
2022/12/29 14:57:34;;;;;;;0.70;0.70;;;;;;;;;;5041061;28;20217;-87
2022/12/29 15:00:20;;;;;;;0.73;0.60;;;;;;;;;;5039570;28;20199;-86
2022/12/29 15:02:55;;;;;;;8.93;1.60;;;;;;;;;;5056988;28;20256;-87
2022/12/29 15:05:36;;;;;;;5.18;3.35;;;;;;;;;;5058592;28;20189;-88
2022/12/29 15:08:05;;;;;;;1.40;0.82;;;;;;;;;;5040018;28;20281;-87
2022/12/29 15:10:43;;;;;;;1.17;0.70;;;;;;;;;;5040253;28;20233;-86
2022/12/29 15:13:21;;;;;;;2.03;0.90;;;;;;;;;;5023522;28;20321;-87
2022/12/29 15:15:48;;;;;;;3.35;0.70;;;;;;;;;;5021195;28;20564;-87
2022/12/29 15:18:25;;;;;;;1.45;0.80;;;;;;;;;;5038804;28;20210;-87
2022/12/29 15:20:56;;;;;;;0.95;0.80;;;;;;;;;;5039396;28;20213;-85
2022/12/29 15:23:24;;;;;;;1.23;1.00;;;;;;;;;;5039432;28;20665;-84
2022/12/29 15:25:56;;;;;;;1.00;0.80;;;;;;;;;;5038768;28;20293;-86
2022/12/29 15:28:24;;;;;;;1.45;0.88;;;;;;;;;;5038357;28;20198;-85
2022/12/29 15:30:57;;;;;;;2.42;1.00;;;;;;;;;;5039635;28;20238;-87
2022/12/29 15:33:28;;;;;;;1.45;0.75;;;;;;;;;;5039645;28;20597;-86
2022/12/29 15:35:58;;;;;;;2.75;0.70;;;;;;;;;;5038759;28;20236;-87
2022/12/29 15:38:28;;;;;;;0.85;0.80;;;;;;;;;;5047257;28;20203;-86
2022/12/29 15:40:58;;;;;;;1.80;0.90;;;;;;;;;;5053934;28;20225;-87
2022/12/29 15:43:38;;;;;;;0.93;0.75;;;;;;;;;;5033210;28;20244;-87
2022/12/29 15:46:06;;;;;;;1.42;0.73;;;;;;;;;;5039418;28;20225;-87
2022/12/29 15:48:36;;;;;;;1.73;0.73;;;;;;;;;;5038888;28;20240;-86
2022/12/29 15:51:03;;;;;;;1.05;1.00;;;;;;;;;;5039449;28;20225;-86